sensor_id;sensor_type;location;lat;lon;timestamp;temperature;humidity
9446;DHT22;4761;49.490;10.908;2023-07-16T00:01:54;25.60;64.40
9446;DHT22;4761;49.490;10.908;2023-07-16T00:04:20;25.60;64.40
9446;DHT22;4761;49.490;10.908;2023-07-16T00:06:46;25.60;64.50
9446;DHT22;4761;49.490;10.908;2023-07-16T00:09:11;25.60;64.40
9446;DHT22;4761;49.490;10.908;2023-07-16T00:11:37;25.60;64.50
9446;DHT22;4761;49.490;10.908;2023-07-16T00:14:03;25.60;64.40
9446;DHT22;4761;49.490;10.908;2023-07-16T00:16:28;25.60;64.30
9446;DHT22;4761;49.490;10.908;2023-07-16T00:18:54;25.60;64.50
9446;DHT22;4761;49.490;10.908;2023-07-16T00:21:19;25.60;64.50
9446;DHT22;4761;49.490;10.908;2023-07-16T00:23:45;25.60;64.50
9446;DHT22;4761;49.490;10.908;2023-07-16T00:26:11;25.60;64.50
9446;DHT22;4761;49.490;10.908;2023-07-16T00:28:37;25.60;64.50
9446;DHT22;4761;49.490;10.908;2023-07-16T00:31:03;25.60;64.50
9446;DHT22;4761;49.490;10.908;2023-07-16T00:33:28;25.60;64.50
9446;DHT22;4761;49.490;10.908;2023-07-16T00:35:54;25.60;64.50
9446;DHT22;4761;49.490;10.908;2023-07-16T00:38:20;25.60;64.50
9446;DHT22;4761;49.490;10.908;2023-07-16T00:40:47;25.60;64.50
9446;DHT22;4761;49.490;10.908;2023-07-16T00:43:12;25.50;64.50
9446;DHT22;4761;49.490;10.908;2023-07-16T00:45:39;25.60;64.60
9446;DHT22;4761;49.490;10.908;2023-07-16T00:48:06;25.60;64.60
9446;DHT22;4761;49.490;10.908;2023-07-16T00:50:33;25.60;64.60
9446;DHT22;4761;49.490;10.908;2023-07-16T00:53:03;25.50;64.60
9446;DHT22;4761;49.490;10.908;2023-07-16T00:55:32;25.60;64.70
9446;DHT22;4761;49.490;10.908;2023-07-16T00:58:01;25.60;64.70
9446;DHT22;4761;49.490;10.908;2023-07-16T01:00:31;25.60;64.60
9446;DHT22;4761;49.490;10.908;2023-07-16T01:02:57;25.60;64.70
9446;DHT22;4761;49.490;10.908;2023-07-16T01:05:24;25.60;64.70
9446;DHT22;4761;49.490;10.908;2023-07-16T01:08:00;25.60;64.50
9446;DHT22;4761;49.490;10.908;2023-07-16T01:10:28;25.60;64.60
9446;DHT22;4761;49.490;10.908;2023-07-16T01:12:55;25.60;64.70
9446;DHT22;4761;49.490;10.908;2023-07-16T01:15:21;25.60;64.70
9446;DHT22;4761;49.490;10.908;2023-07-16T01:17:46;25.60;64.70
9446;DHT22;4761;49.490;10.908;2023-07-16T01:20:12;25.60;64.80
9446;DHT22;4761;49.490;10.908;2023-07-16T01:25:42;25.60;64.70
9446;DHT22;4761;49.490;10.908;2023-07-16T01:28:22;25.50;64.00
9446;DHT22;4761;49.490;10.908;2023-07-16T01:30:52;25.60;64.70
9446;DHT22;4761;49.490;10.908;2023-07-16T01:33:20;25.50;64.70
9446;DHT22;4761;49.490;10.908;2023-07-16T01:35:47;25.50;64.80
9446;DHT22;4761;49.490;10.908;2023-07-16T01:38:14;25.50;64.80
9446;DHT22;4761;49.490;10.908;2023-07-16T01:40:41;25.50;64.80
9446;DHT22;4761;49.490;10.908;2023-07-16T01:43:07;25.50;64.90
9446;DHT22;4761;49.490;10.908;2023-07-16T01:45:32;25.50;64.90
9446;DHT22;4761;49.490;10.908;2023-07-16T01:48:18;25.60;65.00
9446;DHT22;4761;49.490;10.908;2023-07-16T01:50:49;25.60;65.00
9446;DHT22;4761;49.490;10.908;2023-07-16T01:53:15;25.60;65.00
9446;DHT22;4761;49.490;10.908;2023-07-16T01:55:40;25.60;65.00
9446;DHT22;4761;49.490;10.908;2023-07-16T01:58:06;25.60;65.10
9446;DHT22;4761;49.490;10.908;2023-07-16T02:00:31;25.60;65.10
9446;DHT22;4761;49.490;10.908;2023-07-16T02:02:57;25.50;65.00
9446;DHT22;4761;49.490;10.908;2023-07-16T02:05:22;25.50;65.00
9446;DHT22;4761;49.490;10.908;2023-07-16T02:07:48;25.60;65.20
9446;DHT22;4761;49.490;10.908;2023-07-16T02:10:13;25.60;65.10
9446;DHT22;4761;49.490;10.908;2023-07-16T02:12:39;25.60;65.20
9446;DHT22;4761;49.490;10.908;2023-07-16T02:15:05;25.60;65.20
9446;DHT22;4761;49.490;10.908;2023-07-16T02:17:30;25.60;65.20
9446;DHT22;4761;49.490;10.908;2023-07-16T02:19:56;25.50;65.80
9446;DHT22;4761;49.490;10.908;2023-07-16T02:22:21;25.60;65.20
9446;DHT22;4761;49.490;10.908;2023-07-16T02:24:47;25.60;65.20
9446;DHT22;4761;49.490;10.908;2023-07-16T02:27:12;25.60;65.30
9446;DHT22;4761;49.490;10.908;2023-07-16T02:29:38;25.50;65.20
9446;DHT22;4761;49.490;10.908;2023-07-16T02:32:04;25.60;65.30
9446;DHT22;4761;49.490;10.908;2023-07-16T02:34:29;25.50;65.20
9446;DHT22;4761;49.490;10.908;2023-07-16T02:36:55;25.60;65.30
9446;DHT22;4761;49.490;10.908;2023-07-16T02:39:20;25.60;65.30
9446;DHT22;4761;49.490;10.908;2023-07-16T02:41:46;25.60;65.40
9446;DHT22;4761;49.490;10.908;2023-07-16T02:44:11;25.50;65.30
9446;DHT22;4761;49.490;10.908;2023-07-16T02:46:37;25.50;65.60
9446;DHT22;4761;49.490;10.908;2023-07-16T02:49:03;25.60;65.30
9446;DHT22;4761;49.490;10.908;2023-07-16T02:51:28;25.60;65.30
9446;DHT22;4761;49.490;10.908;2023-07-16T02:53:54;25.60;65.40
9446;DHT22;4761;49.490;10.908;2023-07-16T02:56:19;25.60;65.30
9446;DHT22;4761;49.490;10.908;2023-07-16T02:58:45;25.60;65.30
9446;DHT22;4761;49.490;10.908;2023-07-16T03:01:11;25.60;65.30
9446;DHT22;4761;49.490;10.908;2023-07-16T03:03:36;25.60;65.20
9446;DHT22;4761;49.490;10.908;2023-07-16T03:06:02;25.60;65.20
9446;DHT22;4761;49.490;10.908;2023-07-16T03:08:28;25.60;65.20
9446;DHT22;4761;49.490;10.908;2023-07-16T03:10:56;25.70;65.30
9446;DHT22;4761;49.490;10.908;2023-07-16T03:13:21;25.70;65.30
9446;DHT22;4761;49.490;10.908;2023-07-16T03:15:47;25.70;65.30
9446;DHT22;4761;49.490;10.908;2023-07-16T03:18:12;25.60;65.20
9446;DHT22;4761;49.490;10.908;2023-07-16T03:20:38;25.60;65.20
9446;DHT22;4761;49.490;10.908;2023-07-16T03:23:03;25.60;65.20
9446;DHT22;4761;49.490;10.908;2023-07-16T03:25:29;25.60;65.20
9446;DHT22;4761;49.490;10.908;2023-07-16T03:27:54;25.70;58.60
9446;DHT22;4761;49.490;10.908;2023-07-16T03:30:20;25.70;57.00
9446;DHT22;4761;49.490;10.908;2023-07-16T03:32:46;25.70;57.00
9446;DHT22;4761;49.490;10.908;2023-07-16T03:35:11;25.60;57.10
9446;DHT22;4761;49.490;10.908;2023-07-16T03:37:37;25.50;57.40
9446;DHT22;4761;49.490;10.908;2023-07-16T03:40:16;25.40;57.50
9446;DHT22;4761;49.490;10.908;2023-07-16T03:42:42;25.40;57.60
9446;DHT22;4761;49.490;10.908;2023-07-16T03:45:09;25.30;57.70
9446;DHT22;4761;49.490;10.908;2023-07-16T03:47:35;25.20;57.90
9446;DHT22;4761;49.490;10.908;2023-07-16T03:50:00;25.20;58.20
9446;DHT22;4761;49.490;10.908;2023-07-16T03:52:26;25.10;58.10
9446;DHT22;4761;49.490;10.908;2023-07-16T03:54:52;25.10;58.00
9446;DHT22;4761;49.490;10.908;2023-07-16T03:57:18;25.10;58.00
9446;DHT22;4761;49.490;10.908;2023-07-16T03:59:43;25.10;58.30
9446;DHT22;4761;49.490;10.908;2023-07-16T04:02:09;25.00;58.20
9446;DHT22;4761;49.490;10.908;2023-07-16T04:04:34;25.00;58.30
9446;DHT22;4761;49.490;10.908;2023-07-16T04:07:00;24.90;58.20
9446;DHT22;4761;49.490;10.908;2023-07-16T04:09:25;24.90;58.20
9446;DHT22;4761;49.490;10.908;2023-07-16T04:11:51;24.90;58.40
9446;DHT22;4761;49.490;10.908;2023-07-16T04:14:17;24.90;58.30
9446;DHT22;4761;49.490;10.908;2023-07-16T04:16:42;24.90;58.40
9446;DHT22;4761;49.490;10.908;2023-07-16T04:19:09;24.90;58.40
9446;DHT22;4761;49.490;10.908;2023-07-16T04:21:34;24.90;58.50
9446;DHT22;4761;49.490;10.908;2023-07-16T04:24:02;24.90;58.50
9446;DHT22;4761;49.490;10.908;2023-07-16T04:26:27;24.80;58.40
9446;DHT22;4761;49.490;10.908;2023-07-16T04:28:53;24.80;58.50
9446;DHT22;4761;49.490;10.908;2023-07-16T04:31:18;24.80;58.40
9446;DHT22;4761;49.490;10.908;2023-07-16T04:33:44;24.80;58.40
9446;DHT22;4761;49.490;10.908;2023-07-16T04:36:09;24.80;58.50
9446;DHT22;4761;49.490;10.908;2023-07-16T04:38:35;24.80;58.50
9446;DHT22;4761;49.490;10.908;2023-07-16T04:41:00;24.80;58.60
9446;DHT22;4761;49.490;10.908;2023-07-16T04:43:26;24.80;58.50
9446;DHT22;4761;49.490;10.908;2023-07-16T04:45:51;24.80;58.50
9446;DHT22;4761;49.490;10.908;2023-07-16T04:48:17;24.80;58.50
9446;DHT22;4761;49.490;10.908;2023-07-16T04:50:42;24.80;58.50
9446;DHT22;4761;49.490;10.908;2023-07-16T04:53:08;24.80;58.50
9446;DHT22;4761;49.490;10.908;2023-07-16T04:55:37;24.80;58.60
9446;DHT22;4761;49.490;10.908;2023-07-16T04:58:03;24.80;58.60
9446;DHT22;4761;49.490;10.908;2023-07-16T05:00:28;24.80;58.60
9446;DHT22;4761;49.490;10.908;2023-07-16T05:02:54;24.70;58.60
9446;DHT22;4761;49.490;10.908;2023-07-16T05:05:19;24.70;58.60
9446;DHT22;4761;49.490;10.908;2023-07-16T05:07:45;24.70;58.60
9446;DHT22;4761;49.490;10.908;2023-07-16T05:10:11;24.70;58.60
9446;DHT22;4761;49.490;10.908;2023-07-16T05:12:36;24.70;58.70
9446;DHT22;4761;49.490;10.908;2023-07-16T05:15:02;24.80;58.60
9446;DHT22;4761;49.490;10.908;2023-07-16T05:17:27;24.80;58.70
9446;DHT22;4761;49.490;10.908;2023-07-16T05:19:53;24.70;58.50
9446;DHT22;4761;49.490;10.908;2023-07-16T05:22:18;24.70;58.60
9446;DHT22;4761;49.490;10.908;2023-07-16T05:24:44;24.70;58.60
9446;DHT22;4761;49.490;10.908;2023-07-16T05:27:10;24.70;58.60
9446;DHT22;4761;49.490;10.908;2023-07-16T05:29:35;24.70;58.60
9446;DHT22;4761;49.490;10.908;2023-07-16T05:32:01;24.70;58.60
9446;DHT22;4761;49.490;10.908;2023-07-16T05:34:27;24.70;58.60
9446;DHT22;4761;49.490;10.908;2023-07-16T05:36:54;24.70;58.70
9446;DHT22;4761;49.490;10.908;2023-07-16T05:39:20;24.70;58.70
9446;DHT22;4761;49.490;10.908;2023-07-16T05:41:46;24.70;58.60
9446;DHT22;4761;49.490;10.908;2023-07-16T05:44:11;24.70;58.60
9446;DHT22;4761;49.490;10.908;2023-07-16T05:46:37;24.70;58.60
9446;DHT22;4761;49.490;10.908;2023-07-16T05:49:03;24.70;58.60
9446;DHT22;4761;49.490;10.908;2023-07-16T05:51:28;24.70;58.60
9446;DHT22;4761;49.490;10.908;2023-07-16T05:53:54;24.70;58.70
9446;DHT22;4761;49.490;10.908;2023-07-16T05:56:19;24.70;58.50
9446;DHT22;4761;49.490;10.908;2023-07-16T05:58:45;24.70;58.60
9446;DHT22;4761;49.490;10.908;2023-07-16T06:01:10;24.70;58.60
9446;DHT22;4761;49.490;10.908;2023-07-16T06:03:36;24.60;58.50
9446;DHT22;4761;49.490;10.908;2023-07-16T06:06:01;24.70;58.40
9446;DHT22;4761;49.490;10.908;2023-07-16T06:08:27;24.70;58.40
9446;DHT22;4761;49.490;10.908;2023-07-16T06:10:52;24.70;58.50
9446;DHT22;4761;49.490;10.908;2023-07-16T06:13:18;24.70;58.40
9446;DHT22;4761;49.490;10.908;2023-07-16T06:15:43;24.70;58.40
9446;DHT22;4761;49.490;10.908;2023-07-16T06:18:10;24.70;58.40
9446;DHT22;4761;49.490;10.908;2023-07-16T06:20:35;24.70;58.40
9446;DHT22;4761;49.490;10.908;2023-07-16T06:23:01;24.70;58.50
9446;DHT22;4761;49.490;10.908;2023-07-16T06:25:26;24.70;58.50
9446;DHT22;4761;49.490;10.908;2023-07-16T06:27:52;24.70;58.40
9446;DHT22;4761;49.490;10.908;2023-07-16T06:30:17;24.60;58.30
9446;DHT22;4761;49.490;10.908;2023-07-16T06:32:43;24.60;58.20
9446;DHT22;4761;49.490;10.908;2023-07-16T06:35:08;24.60;58.30
9446;DHT22;4761;49.490;10.908;2023-07-16T06:37:34;24.70;58.30
9446;DHT22;4761;49.490;10.908;2023-07-16T06:40:00;24.70;58.30
9446;DHT22;4761;49.490;10.908;2023-07-16T06:42:25;24.60;58.30
9446;DHT22;4761;49.490;10.908;2023-07-16T06:44:51;24.70;58.40
9446;DHT22;4761;49.490;10.908;2023-07-16T06:47:17;24.70;58.40
9446;DHT22;4761;49.490;10.908;2023-07-16T06:49:42;24.70;58.30
9446;DHT22;4761;49.490;10.908;2023-07-16T06:52:08;24.60;58.40
9446;DHT22;4761;49.490;10.908;2023-07-16T06:54:33;24.70;58.60
9446;DHT22;4761;49.490;10.908;2023-07-16T06:57:00;24.60;58.40
9446;DHT22;4761;49.490;10.908;2023-07-16T06:59:25;24.70;58.30
9446;DHT22;4761;49.490;10.908;2023-07-16T07:01:51;24.70;58.20
9446;DHT22;4761;49.490;10.908;2023-07-16T07:04:16;24.70;58.50
9446;DHT22;4761;49.490;10.908;2023-07-16T07:06:42;24.60;58.20
9446;DHT22;4761;49.490;10.908;2023-07-16T07:09:07;24.70;58.40
9446;DHT22;4761;49.490;10.908;2023-07-16T07:11:33;24.70;58.30
9446;DHT22;4761;49.490;10.908;2023-07-16T07:13:58;24.60;58.00
9446;DHT22;4761;49.490;10.908;2023-07-16T07:16:24;24.70;58.20
9446;DHT22;4761;49.490;10.908;2023-07-16T07:18:49;24.70;58.00
9446;DHT22;4761;49.490;10.908;2023-07-16T07:21:15;24.70;58.20
9446;DHT22;4761;49.490;10.908;2023-07-16T07:23:40;24.70;58.00
9446;DHT22;4761;49.490;10.908;2023-07-16T07:26:06;24.70;58.00
9446;DHT22;4761;49.490;10.908;2023-07-16T07:28:31;24.70;58.60
9446;DHT22;4761;49.490;10.908;2023-07-16T07:30:57;24.70;58.10
9446;DHT22;4761;49.490;10.908;2023-07-16T07:33:24;24.60;58.10
9446;DHT22;4761;49.490;10.908;2023-07-16T07:35:53;24.60;58.00
9446;DHT22;4761;49.490;10.908;2023-07-16T07:38:20;24.60;58.00
9446;DHT22;4761;49.490;10.908;2023-07-16T07:40:46;24.60;58.00
9446;DHT22;4761;49.490;10.908;2023-07-16T07:43:11;24.70;58.20
9446;DHT22;4761;49.490;10.908;2023-07-16T07:45:37;24.70;58.10
9446;DHT22;4761;49.490;10.908;2023-07-16T07:48:02;24.70;58.20
9446;DHT22;4761;49.490;10.908;2023-07-16T07:50:28;24.60;58.20
9446;DHT22;4761;49.490;10.908;2023-07-16T07:52:54;24.60;58.10
9446;DHT22;4761;49.490;10.908;2023-07-16T07:55:20;24.60;58.10
9446;DHT22;4761;49.490;10.908;2023-07-16T07:57:45;24.60;58.10
9446;DHT22;4761;49.490;10.908;2023-07-16T08:00:11;24.60;58.10
9446;DHT22;4761;49.490;10.908;2023-07-16T08:02:37;24.60;58.10
9446;DHT22;4761;49.490;10.908;2023-07-16T08:05:03;24.70;58.10
9446;DHT22;4761;49.490;10.908;2023-07-16T08:07:29;24.70;58.10
9446;DHT22;4761;49.490;10.908;2023-07-16T08:09:54;24.60;58.00
9446;DHT22;4761;49.490;10.908;2023-07-16T08:12:20;24.70;58.20
9446;DHT22;4761;49.490;10.908;2023-07-16T08:14:47;24.60;57.90
9446;DHT22;4761;49.490;10.908;2023-07-16T08:17:13;24.60;58.00
9446;DHT22;4761;49.490;10.908;2023-07-16T08:19:38;24.70;58.60
9446;DHT22;4761;49.490;10.908;2023-07-16T08:22:04;24.70;58.00
9446;DHT22;4761;49.490;10.908;2023-07-16T08:24:30;24.70;58.00
9446;DHT22;4761;49.490;10.908;2023-07-16T08:26:55;24.60;57.80
9446;DHT22;4761;49.490;10.908;2023-07-16T08:29:21;24.60;57.90
9446;DHT22;4761;49.490;10.908;2023-07-16T08:31:46;24.60;58.50
9446;DHT22;4761;49.490;10.908;2023-07-16T08:34:12;24.60;57.90
9446;DHT22;4761;49.490;10.908;2023-07-16T08:36:37;24.70;57.80
9446;DHT22;4761;49.490;10.908;2023-07-16T08:39:03;24.70;57.80
9446;DHT22;4761;49.490;10.908;2023-07-16T08:41:29;24.70;58.00
9446;DHT22;4761;49.490;10.908;2023-07-16T08:43:56;24.70;58.00
9446;DHT22;4761;49.490;10.908;2023-07-16T08:46:22;24.70;57.90
9446;DHT22;4761;49.490;10.908;2023-07-16T08:48:48;24.70;58.00
9446;DHT22;4761;49.490;10.908;2023-07-16T08:51:15;24.70;58.00
9446;DHT22;4761;49.490;10.908;2023-07-16T08:53:41;24.70;57.90
9446;DHT22;4761;49.490;10.908;2023-07-16T08:56:07;24.70;58.00
9446;DHT22;4761;49.490;10.908;2023-07-16T08:58:33;24.70;57.90
9446;DHT22;4761;49.490;10.908;2023-07-16T09:01:00;24.70;57.90
9446;DHT22;4761;49.490;10.908;2023-07-16T09:03:26;24.70;58.00
9446;DHT22;4761;49.490;10.908;2023-07-16T09:05:53;24.70;58.00
9446;DHT22;4761;49.490;10.908;2023-07-16T09:08:19;24.80;58.00
9446;DHT22;4761;49.490;10.908;2023-07-16T09:10:44;24.80;58.30
9446;DHT22;4761;49.490;10.908;2023-07-16T09:13:18;24.80;58.00
9446;DHT22;4761;49.490;10.908;2023-07-16T09:15:44;24.80;57.80
9446;DHT22;4761;49.490;10.908;2023-07-16T09:18:11;24.80;57.60
9446;DHT22;4761;49.490;10.908;2023-07-16T09:20:39;24.80;57.80
9446;DHT22;4761;49.490;10.908;2023-07-16T09:23:05;24.80;57.90
9446;DHT22;4761;49.490;10.908;2023-07-16T09:25:30;24.80;57.70
9446;DHT22;4761;49.490;10.908;2023-07-16T09:28:00;24.80;57.70
9446;DHT22;4761;49.490;10.908;2023-07-16T09:30:33;24.80;57.60
9446;DHT22;4761;49.490;10.908;2023-07-16T09:33:16;24.80;57.60
9446;DHT22;4761;49.490;10.908;2023-07-16T09:35:42;24.80;57.30
9446;DHT22;4761;49.490;10.908;2023-07-16T09:38:09;24.80;57.30
9446;DHT22;4761;49.490;10.908;2023-07-16T09:40:38;24.80;57.30
9446;DHT22;4761;49.490;10.908;2023-07-16T09:43:06;24.80;57.50
9446;DHT22;4761;49.490;10.908;2023-07-16T09:45:31;24.80;57.30
9446;DHT22;4761;49.490;10.908;2023-07-16T09:47:58;24.80;57.30
9446;DHT22;4761;49.490;10.908;2023-07-16T09:50:24;24.80;57.30
9446;DHT22;4761;49.490;10.908;2023-07-16T09:52:51;24.80;57.20
9446;DHT22;4761;49.490;10.908;2023-07-16T09:55:18;24.80;56.80
9446;DHT22;4761;49.490;10.908;2023-07-16T09:57:47;24.90;56.80
9446;DHT22;4761;49.490;10.908;2023-07-16T10:00:13;24.90;57.00
9446;DHT22;4761;49.490;10.908;2023-07-16T10:02:40;24.80;56.80
9446;DHT22;4761;49.490;10.908;2023-07-16T10:05:15;24.90;56.90
9446;DHT22;4761;49.490;10.908;2023-07-16T10:07:42;24.90;56.80
9446;DHT22;4761;49.490;10.908;2023-07-16T10:10:11;24.90;56.80
9446;DHT22;4761;49.490;10.908;2023-07-16T10:12:38;24.90;56.80
9446;DHT22;4761;49.490;10.908;2023-07-16T10:15:04;24.90;56.40
9446;DHT22;4761;49.490;10.908;2023-07-16T10:17:31;24.90;56.50
9446;DHT22;4761;49.490;10.908;2023-07-16T10:20:08;24.90;56.30
9446;DHT22;4761;49.490;10.908;2023-07-16T10:22:45;24.80;55.50
9446;DHT22;4761;49.490;10.908;2023-07-16T10:25:23;24.80;55.20
9446;DHT22;4761;49.490;10.908;2023-07-16T10:27:51;24.80;55.00
9446;DHT22;4761;49.490;10.908;2023-07-16T10:30:17;24.70;54.30
9446;DHT22;4761;49.490;10.908;2023-07-16T10:32:43;24.80;54.40
9446;DHT22;4761;49.490;10.908;2023-07-16T10:35:09;24.80;54.40
9446;DHT22;4761;49.490;10.908;2023-07-16T10:37:36;24.90;54.10
9446;DHT22;4761;49.490;10.908;2023-07-16T10:40:03;24.90;53.80
9446;DHT22;4761;49.490;10.908;2023-07-16T10:42:29;25.00;54.00
9446;DHT22;4761;49.490;10.908;2023-07-16T10:44:59;25.00;53.60
9446;DHT22;4761;49.490;10.908;2023-07-16T10:47:34;25.10;53.20
9446;DHT22;4761;49.490;10.908;2023-07-16T10:50:00;25.10;53.20
9446;DHT22;4761;49.490;10.908;2023-07-16T10:52:28;25.10;53.10
9446;DHT22;4761;49.490;10.908;2023-07-16T10:54:54;25.10;52.50
9446;DHT22;4761;49.490;10.908;2023-07-16T10:57:21;25.10;52.30
9446;DHT22;4761;49.490;10.908;2023-07-16T10:59:46;25.10;52.20
9446;DHT22;4761;49.490;10.908;2023-07-16T11:02:15;25.10;52.30
9446;DHT22;4761;49.490;10.908;2023-07-16T11:04:41;25.20;52.50
9446;DHT22;4761;49.490;10.908;2023-07-16T11:07:08;25.20;52.40
9446;DHT22;4761;49.490;10.908;2023-07-16T11:09:44;25.20;52.30
9446;DHT22;4761;49.490;10.908;2023-07-16T11:12:12;25.30;52.50
9446;DHT22;4761;49.490;10.908;2023-07-16T11:14:39;25.30;52.40
9446;DHT22;4761;49.490;10.908;2023-07-16T11:17:08;25.30;52.60
9446;DHT22;4761;49.490;10.908;2023-07-16T11:19:35;25.40;52.40
9446;DHT22;4761;49.490;10.908;2023-07-16T11:22:02;25.30;52.30
9446;DHT22;4761;49.490;10.908;2023-07-16T11:24:28;25.40;52.40
9446;DHT22;4761;49.490;10.908;2023-07-16T11:26:55;25.40;52.50
9446;DHT22;4761;49.490;10.908;2023-07-16T11:29:22;25.40;52.30
9446;DHT22;4761;49.490;10.908;2023-07-16T11:31:52;25.40;52.30
9446;DHT22;4761;49.490;10.908;2023-07-16T11:34:21;25.40;52.30
9446;DHT22;4761;49.490;10.908;2023-07-16T11:36:50;25.40;52.30
9446;DHT22;4761;49.490;10.908;2023-07-16T11:39:15;25.40;52.20
9446;DHT22;4761;49.490;10.908;2023-07-16T11:41:41;25.40;52.20
9446;DHT22;4761;49.490;10.908;2023-07-16T11:44:07;25.40;52.10
9446;DHT22;4761;49.490;10.908;2023-07-16T11:46:34;25.40;52.20
9446;DHT22;4761;49.490;10.908;2023-07-16T11:49:03;25.40;52.30
9446;DHT22;4761;49.490;10.908;2023-07-16T11:51:29;25.40;52.40
9446;DHT22;4761;49.490;10.908;2023-07-16T11:53:56;25.40;52.30
9446;DHT22;4761;49.490;10.908;2023-07-16T11:56:22;25.50;52.50
9446;DHT22;4761;49.490;10.908;2023-07-16T11:58:48;25.50;52.70
9446;DHT22;4761;49.490;10.908;2023-07-16T12:01:14;25.50;52.60
9446;DHT22;4761;49.490;10.908;2023-07-16T12:03:40;25.40;52.60
9446;DHT22;4761;49.490;10.908;2023-07-16T12:06:06;25.40;52.50
9446;DHT22;4761;49.490;10.908;2023-07-16T12:08:31;25.40;52.70
9446;DHT22;4761;49.490;10.908;2023-07-16T12:10:57;25.50;52.70
9446;DHT22;4761;49.490;10.908;2023-07-16T12:13:22;25.50;52.80
9446;DHT22;4761;49.490;10.908;2023-07-16T12:15:48;25.40;52.80
9446;DHT22;4761;49.490;10.908;2023-07-16T12:18:14;25.50;52.80
9446;DHT22;4761;49.490;10.908;2023-07-16T12:20:39;25.50;52.90
9446;DHT22;4761;49.490;10.908;2023-07-16T12:23:05;25.50;53.50
9446;DHT22;4761;49.490;10.908;2023-07-16T12:25:30;25.50;52.90
9446;DHT22;4761;49.490;10.908;2023-07-16T12:27:56;25.40;52.80
9446;DHT22;4761;49.490;10.908;2023-07-16T12:30:23;25.40;52.70
9446;DHT22;4761;49.490;10.908;2023-07-16T12:32:49;25.50;52.80
9446;DHT22;4761;49.490;10.908;2023-07-16T12:35:14;25.40;52.60
9446;DHT22;4761;49.490;10.908;2023-07-16T12:37:40;25.40;52.70
9446;DHT22;4761;49.490;10.908;2023-07-16T12:40:06;25.40;52.70
9446;DHT22;4761;49.490;10.908;2023-07-16T12:42:32;25.40;52.80
9446;DHT22;4761;49.490;10.908;2023-07-16T12:44:58;25.40;53.10
9446;DHT22;4761;49.490;10.908;2023-07-16T12:47:23;25.40;52.90
9446;DHT22;4761;49.490;10.908;2023-07-16T12:49:49;25.40;53.00
9446;DHT22;4761;49.490;10.908;2023-07-16T12:52:14;25.50;53.00
9446;DHT22;4761;49.490;10.908;2023-07-16T12:54:40;25.40;53.00
9446;DHT22;4761;49.490;10.908;2023-07-16T12:57:06;25.50;53.10
9446;DHT22;4761;49.490;10.908;2023-07-16T12:59:31;25.40;53.30
9446;DHT22;4761;49.490;10.908;2023-07-16T13:01:57;25.50;53.40
9446;DHT22;4761;49.490;10.908;2023-07-16T13:04:22;25.40;53.60
9446;DHT22;4761;49.490;10.908;2023-07-16T13:06:48;25.50;53.70
9446;DHT22;4761;49.490;10.908;2023-07-16T13:09:17;25.40;53.50
9446;DHT22;4761;49.490;10.908;2023-07-16T13:11:42;25.40;53.50
9446;DHT22;4761;49.490;10.908;2023-07-16T13:14:08;25.40;53.30
9446;DHT22;4761;49.490;10.908;2023-07-16T13:16:34;25.40;53.20
9446;DHT22;4761;49.490;10.908;2023-07-16T13:19:00;25.40;53.00
9446;DHT22;4761;49.490;10.908;2023-07-16T13:21:25;25.50;53.20
9446;DHT22;4761;49.490;10.908;2023-07-16T13:23:51;25.50;53.20
9446;DHT22;4761;49.490;10.908;2023-07-16T13:26:16;25.50;53.20
9446;DHT22;4761;49.490;10.908;2023-07-16T13:28:42;25.50;52.90
9446;DHT22;4761;49.490;10.908;2023-07-16T13:31:07;25.50;53.00
9446;DHT22;4761;49.490;10.908;2023-07-16T13:33:33;25.50;53.10
9446;DHT22;4761;49.490;10.908;2023-07-16T13:36:00;25.50;53.10
9446;DHT22;4761;49.490;10.908;2023-07-16T13:38:28;25.40;53.20
9446;DHT22;4761;49.490;10.908;2023-07-16T13:40:54;25.70;53.80
9446;DHT22;4761;49.490;10.908;2023-07-16T13:43:19;25.70;53.60
9446;DHT22;4761;49.490;10.908;2023-07-16T13:45:45;25.70;53.70
9446;DHT22;4761;49.490;10.908;2023-07-16T13:48:10;25.60;53.70
9446;DHT22;4761;49.490;10.908;2023-07-16T13:50:36;25.60;54.10
9446;DHT22;4761;49.490;10.908;2023-07-16T13:53:01;25.50;54.10
9446;DHT22;4761;49.490;10.908;2023-07-16T13:55:27;25.50;54.10
9446;DHT22;4761;49.490;10.908;2023-07-16T13:57:53;25.50;54.20
9446;DHT22;4761;49.490;10.908;2023-07-16T14:00:21;25.50;54.10
9446;DHT22;4761;49.490;10.908;2023-07-16T14:02:46;25.40;54.20
9446;DHT22;4761;49.490;10.908;2023-07-16T14:05:12;25.40;54.10
9446;DHT22;4761;49.490;10.908;2023-07-16T14:07:38;25.40;54.20
9446;DHT22;4761;49.490;10.908;2023-07-16T14:10:04;25.40;54.20
9446;DHT22;4761;49.490;10.908;2023-07-16T14:12:29;25.40;54.10
9446;DHT22;4761;49.490;10.908;2023-07-16T14:14:55;25.40;54.10
9446;DHT22;4761;49.490;10.908;2023-07-16T14:17:20;25.40;54.20
9446;DHT22;4761;49.490;10.908;2023-07-16T14:19:46;25.40;54.10
9446;DHT22;4761;49.490;10.908;2023-07-16T14:22:12;25.40;54.10
9446;DHT22;4761;49.490;10.908;2023-07-16T14:24:38;25.40;54.00
9446;DHT22;4761;49.490;10.908;2023-07-16T14:27:05;25.40;54.00
9446;DHT22;4761;49.490;10.908;2023-07-16T14:29:31;25.40;54.00
9446;DHT22;4761;49.490;10.908;2023-07-16T14:31:58;25.40;53.90
9446;DHT22;4761;49.490;10.908;2023-07-16T14:34:25;25.40;53.80
9446;DHT22;4761;49.490;10.908;2023-07-16T14:36:50;25.40;53.90
9446;DHT22;4761;49.490;10.908;2023-07-16T14:39:16;25.40;53.80
9446;DHT22;4761;49.490;10.908;2023-07-16T14:41:41;25.40;53.90
9446;DHT22;4761;49.490;10.908;2023-07-16T14:44:07;25.40;54.10
9446;DHT22;4761;49.490;10.908;2023-07-16T14:46:32;25.40;54.10
9446;DHT22;4761;49.490;10.908;2023-07-16T14:48:58;25.40;53.90
9446;DHT22;4761;49.490;10.908;2023-07-16T14:51:24;25.40;54.10
9446;DHT22;4761;49.490;10.908;2023-07-16T14:53:51;25.40;54.00
9446;DHT22;4761;49.490;10.908;2023-07-16T14:56:18;25.40;54.10
9446;DHT22;4761;49.490;10.908;2023-07-16T14:58:43;25.40;54.00
9446;DHT22;4761;49.490;10.908;2023-07-16T15:01:10;25.40;53.90
9446;DHT22;4761;49.490;10.908;2023-07-16T15:03:35;25.40;54.20
9446;DHT22;4761;49.490;10.908;2023-07-16T15:06:02;25.40;54.00
9446;DHT22;4761;49.490;10.908;2023-07-16T15:08:28;25.40;53.90
9446;DHT22;4761;49.490;10.908;2023-07-16T15:10:58;25.40;53.90
9446;DHT22;4761;49.490;10.908;2023-07-16T15:13:24;25.40;53.90
9446;DHT22;4761;49.490;10.908;2023-07-16T15:15:54;25.40;53.90
9446;DHT22;4761;49.490;10.908;2023-07-16T15:18:20;25.40;53.90
9446;DHT22;4761;49.490;10.908;2023-07-16T15:20:49;25.40;53.80
9446;DHT22;4761;49.490;10.908;2023-07-16T15:23:14;25.40;53.80
9446;DHT22;4761;49.490;10.908;2023-07-16T15:25:42;25.40;53.80
9446;DHT22;4761;49.490;10.908;2023-07-16T15:28:10;25.40;53.80
9446;DHT22;4761;49.490;10.908;2023-07-16T15:30:36;25.40;53.80
9446;DHT22;4761;49.490;10.908;2023-07-16T15:33:02;25.40;53.90
9446;DHT22;4761;49.490;10.908;2023-07-16T15:35:27;25.40;54.10
9446;DHT22;4761;49.490;10.908;2023-07-16T15:37:53;25.40;54.00
9446;DHT22;4761;49.490;10.908;2023-07-16T15:40:19;25.40;54.10
9446;DHT22;4761;49.490;10.908;2023-07-16T15:42:44;25.40;54.20